Aérodrome :
LOGIN :

S'inscrire | Disclaimer

   EN    FR    IT 

 










Légende :    VFR   VFR Marginal   IFR   IFR Intensif   IFR Très Intensif
Visi : 
Plafond : 
>= 8 km
>= 3000ft
5 à 8 km
1000 à 3000 ft
1500m à 5 km
500 à 1000 ft
800 à 1500m
200 à 500 ft
< 800m
< 200 ft
Symboles :   Orages  Brouillard  Fortes neiges  Fortes précipitations  Vent > 20 kt
SIGMETs :   Divers  Orages  Givrage  Turbulence  Onde Orograph.  Cendres Volcan.






- Altitude de l'aérodrome : 935 ft


EBFS - Florennes

DERNIER METAR :
  • 150655Z AUTO 24016KT 9999 SCT021/// BKN026/// BKN046/// 07/04 Q0998 WHT

METARs EXPIRÉS :
  • 150643Z AUTO 23016KT 9999 SCT021/// BKN027/// BKN100/// 07/04 Q0998 WHT
  • 150625Z AUTO 23017KT 9999 FEW040/// SCT075/// BKN090/// 07/04 Q0998 BLU
  • 150613Z AUTO 23014KT 9999 FEW024/// SCT043/// BKN060/// 08/04 Q0997 BLU
  • 150555Z AUTO 24020KT 9999 FEW013/// SCT023/// BKN027/// 07/04 Q0997 WHT
  • 150525Z AUTO 24020KT 9999 FEW010/// SCT015/// BKN021/// 08/07 Q0996 WHT
  • 150518Z AUTO 22018KT 3600 RA FEW009/// SCT014/// BKN018/// 08/07 Q0996 YLO
  • 150503Z AUTO 20019G32KT 4600 -RA FEW011/// SCT016/// BKN019/// 08/07 Q0995 GRN
  • 150444Z AUTO 20018KT 3100 -RA FEW014/// SCT018/// BKN023/// 09/07 Q0995 YLO
  • 150422Z AUTO 20017KT 9999 FEW011/// SCT018/// BKN024/// 09/07 Q0994 WHT

Prévision TAF périmée.



MET'MAP, la Météo Aéronautique d'un coup d'oeil ! - Copyright ORBIFLY Décembre 2007 - Disclaimer

ORBIFLY MET'MAP TEAM :

Programmation & Développement : Alexandra Zaïnal
Sur une idée originale de : Baudouin d'Aumeries
Assistance à la programmation : Marc-Olivier Méhu
Soutien technique & logistique : Manuel Goepfert

Contact : metmap@orbifly.com




SOURCES & CREDITS :

   NOAA